Time;durP1;ratioP1;P1;durP2;ratioP2;P2;SDS_P1;SDS_P2;PMS_P1;PMS_P2;Temp;Humidity;BMP_temperature;BMP_pressure;BME280_temperature;BME280_humidity;BME280_pressure;Samples;Min_cycle;Max_cycle;Signal;HPM_P1;HPM_P2
2023/09/17 00:00:47;;;;;;;34.40;27.95;;;17.90;99.90;;;;;;5037652;28;36857;-82
2023/09/17 00:03:13;;;;;;;26.35;23.55;;;17.80;99.90;;;;;;5052274;28;38903;-83
2023/09/17 00:05:40;;;;;;;26.90;24.15;;;17.80;99.90;;;;;;5053427;28;39184;-83
2023/09/17 00:08:06;;;;;;;26.42;23.73;;;17.80;99.90;;;;;;5026885;28;37332;-83
2023/09/17 00:10:32;;;;;;;24.80;22.50;;;17.70;99.90;;;;;;5044696;28;37122;-83
2023/09/17 00:12:58;;;;;;;26.75;24.05;;;17.60;99.90;;;;;;5042169;28;39159;-84
2023/09/17 00:15:27;;;;;;;28.60;25.77;;;17.60;99.90;;;;;;5032800;28;37533;-84
2023/09/17 00:17:54;;;;;;;30.20;26.98;;;17.60;99.90;;;;;;5048713;28;37625;-84
2023/09/17 00:20:20;;;;;;;27.20;24.40;;;17.60;99.90;;;;;;5041193;28;37201;-84
2023/09/17 00:22:46;;;;;;;26.70;22.27;;;17.60;99.90;;;;;;5048602;28;38935;-83
2023/09/17 00:25:18;;;;;;;27.15;24.33;;;17.50;99.90;;;;;;5030701;28;37251;-82
2023/09/17 00:27:44;;;;;;;;;;;17.60;99.90;;;;;;5064341;28;38633;-83
2023/09/17 00:30:11;;;;;;;29.48;26.17;;;17.60;99.90;;;;;;5050988;28;36874;-82
2023/09/17 00:32:37;;;;;;;26.77;23.88;;;17.60;99.90;;;;;;5042464;28;39403;-82
2023/09/17 00:35:05;;;;;;;30.38;26.13;;;17.60;99.90;;;;;;5024271;28;37514;-83
2023/09/17 00:37:31;;;;;;;23.52;21.33;;;17.40;99.90;;;;;;5049732;28;47650;-82
2023/09/17 00:39:57;;;;;;;25.95;23.25;;;17.40;99.90;;;;;;5052087;28;36901;-82
2023/09/17 00:42:24;;;;;;;25.95;23.45;;;17.40;99.90;;;;;;5019925;28;37724;-83
2023/09/17 00:44:50;;;;;;;24.10;21.60;;;17.40;99.90;;;;;;5030569;28;37522;-82
2023/09/17 00:47:16;;;;;;;27.33;22.75;;;17.30;99.90;;;;;;5049040;28;37774;-83
2023/09/17 00:49:43;;;;;;;25.25;22.55;;;17.30;99.90;;;;;;5040063;28;36561;-83
2023/09/17 00:52:28;;;;;;;24.48;22.00;;;17.30;99.90;;;;;;5034253;28;38953;-83
2023/09/17 00:54:55;;;;;;;22.50;20.13;;;17.20;99.90;;;;;;5032289;28;37504;-82
2023/09/17 00:57:23;;;;;;;21.60;19.30;;;17.20;99.90;;;;;;5023987;28;38642;-82
2023/09/17 00:59:49;;;;;;;21.38;19.15;;;17.10;99.90;;;;;;5040401;28;36418;-84
2023/09/17 01:02:20;;;;;;;21.23;18.08;;;17.10;99.90;;;;;;5466520;22;37554;-82
2023/09/17 01:04:49;;;;;;;19.05;17.05;;;17.10;99.90;;;;;;5031779;28;35659;-84
2023/09/17 01:07:19;;;;;;;22.23;19.98;;;17.10;99.90;;;;;;5042810;28;37130;-83
2023/09/17 01:09:46;;;;;;;22.45;18.83;;;17.10;99.90;;;;;;5051812;28;36973;-84
2023/09/17 01:12:13;;;;;;;20.20;18.08;;;17.00;99.90;;;;;;5042378;28;39081;-83
2023/09/17 01:14:39;;;;;;;19.83;17.17;;;17.00;99.90;;;;;;5041988;28;38781;-83
2023/09/17 01:17:09;;;;;;;18.52;16.80;;;17.00;99.90;;;;;;5043881;28;37154;-83
2023/09/17 01:19:36;;;;;;;19.55;17.63;;;17.00;99.90;;;;;;5036598;28;37454;-83
2023/09/17 01:22:13;;;;;;;18.45;16.55;;;17.00;99.90;;;;;;5049736;28;37679;-83
2023/09/17 01:24:58;;;;;;;18.27;15.55;;;16.90;99.90;;;;;;5044533;28;38640;-83
2023/09/17 01:27:25;;;;;;;17.73;15.82;;;16.90;99.90;;;;;;5050325;28;37397;-83
2023/09/17 01:29:53;;;;;;;18.25;16.42;;;16.90;99.90;;;;;;5037293;28;37628;-83
2023/09/17 01:32:20;;;;;;;16.80;15.23;;;16.90;99.90;;;;;;5044354;28;37848;-83
2023/09/17 01:34:52;;;;;;;15.98;14.38;;;16.90;99.90;;;;;;5058904;28;38440;-84
2023/09/17 01:37:34;;;;;;;18.13;16.20;;;16.90;99.90;;;;;;5043182;28;37424;-83
2023/09/17 01:40:05;;;;;;;17.35;15.27;;;16.80;99.90;;;;;;5059216;28;37192;-84
2023/09/17 01:42:31;;;;;;;16.60;14.82;;;16.90;99.90;;;;;;5046273;28;46936;-84
2023/09/17 01:45:00;;;;;;;15.65;14.02;;;16.90;99.90;;;;;;5055990;28;38965;-84
2023/09/17 01:47:27;;;;;;;14.80;13.30;;;16.80;99.90;;;;;;5041836;28;36781;-84
2023/09/17 01:49:58;;;;;;;15.88;14.38;;;16.90;99.90;;;;;;5041681;28;36099;-84
2023/09/17 01:52:26;;;;;;;17.75;13.77;;;16.90;99.90;;;;;;5061614;28;38756;-84
2023/09/17 01:54:53;;;;;;;16.35;12.98;;;16.90;99.90;;;;;;5039912;28;37327;-83
2023/09/17 01:57:19;;;;;;;15.38;13.93;;;16.90;99.90;;;;;;5035396;28;35329;-83
2023/09/17 01:59:45;;;;;;;14.48;13.10;;;16.90;99.90;;;;;;5058244;28;37745;-83
2023/09/17 02:02:11;;;;;;;14.73;13.05;;;16.90;99.90;;;;;;5037609;28;39372;-83
2023/09/17 02:04:38;;;;;;;14.88;13.35;;;16.90;99.90;;;;;;5042304;28;38495;-83
2023/09/17 02:07:04;;;;;;;13.57;12.18;;;16.90;99.90;;;;;;5056515;28;38777;-83
2023/09/17 02:09:30;;;;;;;14.30;12.93;;;16.90;99.90;;;;;;5054336;28;36696;-83
2023/09/17 02:11:56;;;;;;;16.67;13.75;;;16.90;99.90;;;;;;5045157;28;37857;-83
2023/09/17 02:14:22;;;;;;;18.83;13.10;;;16.90;99.90;;;;;;5057213;28;38151;-83
2023/09/17 02:16:49;;;;;;;15.13;13.00;;;16.90;99.90;;;;;;5039154;28;38520;-83
2023/09/17 02:19:15;;;;;;;16.25;14.55;;;16.90;99.90;;;;;;5044279;28;36618;-83
2023/09/17 02:21:41;;;;;;;14.38;12.32;;;16.90;99.90;;;;;;5057322;28;39338;-83
2023/09/17 02:24:07;;;;;;;13.63;12.30;;;16.90;99.90;;;;;;5040086;28;38857;-83
2023/09/17 02:26:33;;;;;;;14.45;12.95;;;16.90;99.90;;;;;;5042919;28;37195;-83
2023/09/17 02:29:00;;;;;;;14.45;12.80;;;16.90;99.90;;;;;;5043333;28;37095;-83
2023/09/17 02:31:27;;;;;;;13.73;12.15;;;16.90;99.90;;;;;;5041191;28;37690;-83
2023/09/17 02:33:53;;;;;;;15.23;13.73;;;16.90;99.90;;;;;;5035039;28;37469;-83
2023/09/17 02:36:19;;;;;;;15.18;13.00;;;17.00;99.90;;;;;;5066312;28;37788;-83
2023/09/17 02:38:45;;;;;;;15.77;13.18;;;17.00;99.90;;;;;;5054096;28;37385;-84
2023/09/17 02:41:12;;;;;;;14.45;12.95;;;17.00;99.90;;;;;;5046202;28;37742;-84
2023/09/17 02:43:38;;;;;;;14.57;13.07;;;17.00;99.90;;;;;;5067447;28;39135;-82
2023/09/17 02:46:07;;;;;;;15.60;14.00;;;17.00;99.90;;;;;;5039968;28;36744;-81
2023/09/17 02:48:33;;;;;;;14.00;12.60;;;17.00;99.90;;;;;;5058569;28;37111;-83
2023/09/17 02:51:00;;;;;;;14.35;12.88;;;17.00;99.90;;;;;;5060238;28;39386;-83
2023/09/17 02:53:27;;;;;;;16.35;12.80;;;17.00;99.90;;;;;;5049052;28;38210;-83
2023/09/17 02:55:54;;;;;;;13.98;12.02;;;17.10;99.90;;;;;;5044787;28;38069;-82
2023/09/17 02:58:20;;;;;;;14.43;12.93;;;17.10;99.90;;;;;;5058201;28;37182;-82
2023/09/17 03:00:46;;;;;;;14.25;12.65;;;17.10;99.90;;;;;;5048776;28;37653;-82
2023/09/17 03:03:15;;;;;;;14.75;13.23;;;17.10;99.90;;;;;;5065246;28;38444;-83
2023/09/17 03:05:46;;;;;;;14.88;13.00;;;17.10;99.90;;;;;;5061762;28;37612;-82
2023/09/17 03:08:12;;;;;;;13.65;12.25;;;17.10;99.90;;;;;;5050074;28;36318;-82
2023/09/17 03:10:42;;;;;;;16.23;14.57;;;17.10;99.90;;;;;;5068117;28;38881;-83
2023/09/17 03:13:12;;;;;;;13.98;12.48;;;17.10;99.90;;;;;;5044229;28;37279;-83
2023/09/17 03:15:38;;;;;;;13.32;11.93;;;17.10;99.90;;;;;;5043079;28;38076;-82
2023/09/17 03:18:05;;;;;;;14.80;13.32;;;17.10;99.90;;;;;;5059944;28;37482;-83
2023/09/17 03:20:34;;;;;;;15.10;13.50;;;17.10;99.90;;;;;;5056887;28;39087;-83
2023/09/17 03:23:04;;;;;;;14.77;13.25;;;17.10;99.90;;;;;;5058013;28;38826;-82
2023/09/17 03:25:31;;;;;;;15.25;13.75;;;17.10;99.90;;;;;;5065015;28;48008;-82
2023/09/17 03:28:00;;;;;;;15.88;14.20;;;17.00;99.90;;;;;;5041739;28;36360;-81
2023/09/17 03:30:27;;;;;;;18.58;15.50;;;17.00;99.90;;;;;;5063611;28;47766;-83
2023/09/17 03:32:53;;;;;;;17.13;15.40;;;17.00;99.90;;;;;;5060960;28;38410;-83
2023/09/17 03:35:20;;;;;;;16.30;14.10;;;16.90;99.90;;;;;;5054183;28;37313;-83
2023/09/17 03:37:46;;;;;;;17.52;15.65;;;16.80;99.90;;;;;;5041997;28;36476;-83
2023/09/17 03:40:14;;;;;;;25.10;16.75;;;16.80;99.90;;;;;;5060805;28;39791;-84
2023/09/17 03:42:42;;;;;;;17.88;16.13;;;16.80;99.90;;;;;;5045960;28;37707;-85
2023/09/17 03:45:10;;;;;;;20.00;18.10;;;16.80;99.90;;;;;;5060590;28;38007;-84
2023/09/17 03:47:37;;;;;;;20.02;18.00;;;16.70;99.90;;;;;;5046316;28;36709;-83
2023/09/17 03:50:04;;;;;;;18.73;16.92;;;16.70;99.90;;;;;;5037752;28;38693;-83
2023/09/17 03:52:32;;;;;;;18.58;16.77;;;16.60;99.90;;;;;;5062417;28;48766;-84
2023/09/17 03:54:59;;;;;;;19.50;17.50;;;16.50;99.90;;;;;;5040967;28;38243;-81
2023/09/17 03:57:25;;;;;;;18.42;16.70;;;16.50;99.90;;;;;;5052923;28;37450;-83
2023/09/17 03:59:51;;;;;;;19.65;17.55;;;16.50;99.90;;;;;;5058034;28;41241;-80
2023/09/17 04:02:18;;;;;;;21.05;17.90;;;16.40;99.90;;;;;;5046521;28;37315;-83
2023/09/17 04:04:44;;;;;;;22.73;20.40;;;16.40;99.90;;;;;;5048575;28;37389;-83
2023/09/17 04:07:10;;;;;;;20.92;18.75;;;16.40;99.90;;;;;;5054898;28;38131;-84
2023/09/17 04:09:36;;;;;;;22.33;20.13;;;16.30;99.90;;;;;;5048291;28;37572;-84
2023/09/17 04:12:04;;;;;;;20.42;18.17;;;16.30;99.90;;;;;;5061967;28;39437;-84
2023/09/17 04:14:33;;;;;;;22.02;19.73;;;16.30;99.90;;;;;;5061808;28;38005;-83
2023/09/17 04:17:01;;;;;;;19.02;17.13;;;16.30;99.90;;;;;;5049176;28;37440;-84
2023/09/17 04:19:29;;;;;;;24.20;20.15;;;16.30;99.90;;;;;;5064385;28;47264;-84
2023/09/17 04:21:56;;;;;;;21.40;18.73;;;16.30;99.90;;;;;;5044687;28;37149;-84
2023/09/17 04:24:22;;;;;;;19.67;17.70;;;16.20;99.90;;;;;;5051844;28;36430;-85
2023/09/17 04:26:48;;;;;;;21.42;19.13;;;16.30;99.90;;;;;;5047460;28;36578;-84
2023/09/17 04:29:14;;;;;;;20.60;18.40;;;16.30;99.90;;;;;;5048088;28;38130;-83
2023/09/17 04:31:41;;;;;;;22.13;18.92;;;16.30;99.90;;;;;;5045787;28;37740;-84
2023/09/17 04:34:07;;;;;;;19.45;17.33;;;16.30;99.90;;;;;;5068286;28;38312;-83
2023/09/17 04:36:33;;;;;;;22.00;19.50;;;16.30;99.90;;;;;;5046531;28;36830;-83
2023/09/17 04:38:59;;;;;;;21.35;19.25;;;16.30;99.90;;;;;;5067232;28;39570;-86
2023/09/17 04:41:26;;;;;;;22.75;18.00;;;16.40;99.90;;;;;;5052853;28;37615;-84
2023/09/17 04:43:52;;;;;;;21.52;19.23;;;16.40;99.90;;;;;;5058263;28;37285;-84
2023/09/17 04:46:18;;;;;;;21.00;18.83;;;16.40;99.90;;;;;;5051528;28;35995;-83
2023/09/17 04:48:44;;;;;;;20.95;18.83;;;16.40;99.90;;;;;;5066095;28;38493;-84
2023/09/17 04:51:16;;;;;;;21.20;18.98;;;16.30;99.90;;;;;;5052393;28;37721;-84
2023/09/17 04:53:43;;;;;;;21.45;19.35;;;16.40;99.90;;;;;;5051904;28;38518;-82
2023/09/17 04:56:09;;;;;;;21.40;19.10;;;16.40;99.90;;;;;;5047959;28;36106;-83
2023/09/17 04:58:35;;;;;;;20.73;18.17;;;16.30;99.90;;;;;;5051956;28;37895;-84
2023/09/17 05:01:01;;;;;;;19.30;17.33;;;16.30;99.90;;;;;;5049133;28;38369;-84
2023/09/17 05:03:27;;;;;;;20.52;18.40;;;16.40;99.90;;;;;;5063843;28;48355;-85
2023/09/17 05:05:53;;;;;;;20.98;18.55;;;16.40;99.90;;;;;;5035741;28;36431;-84
2023/09/17 05:08:19;;;;;;;20.85;17.40;;;16.40;99.90;;;;;;5039893;28;37452;-83
2023/09/17 05:10:45;;;;;;;18.80;16.90;;;16.40;99.90;;;;;;5053312;28;38714;-84
2023/09/17 05:13:12;;;;;;;20.52;18.20;;;16.40;99.90;;;;;;5047108;28;37168;-84
2023/09/17 05:15:38;;;;;;;18.50;16.48;;;16.30;99.90;;;;;;5045683;28;37918;-83
2023/09/17 05:18:09;;;;;;;21.00;17.08;;;16.30;99.90;;;;;;5055678;28;39410;-84
2023/09/17 05:20:38;;;;;;;17.92;16.02;;;16.30;99.90;;;;;;5064328;28;38004;-85
2023/09/17 05:23:04;;;;;;;19.42;17.45;;;16.40;99.90;;;;;;5054044;28;36666;-84
2023/09/17 05:25:30;;;;;;;18.15;16.27;;;16.30;99.90;;;;;;5060515;28;38673;-83
2023/09/17 05:27:56;;;;;;;17.67;15.95;;;16.40;99.90;;;;;;5065293;28;38536;-84
2023/09/17 05:30:22;;;;;;;18.38;16.52;;;16.40;99.90;;;;;;5063201;28;38254;-83
2023/09/17 05:32:48;;;;;;;18.88;15.90;;;16.40;99.90;;;;;;5035481;28;38722;-84
2023/09/17 05:35:14;;;;;;;18.38;16.48;;;16.40;99.90;;;;;;5050374;28;37093;-82
2023/09/17 05:37:41;;;;;;;18.80;16.88;;;16.40;99.90;;;;;;5042887;28;37674;-84
2023/09/17 05:40:07;;;;;;;18.50;16.63;;;16.40;99.90;;;;;;5056167;28;39536;-84
2023/09/17 05:42:33;;;;;;;18.73;16.73;;;16.40;99.90;;;;;;5047496;28;37522;-83
2023/09/17 05:44:59;;;;;;;17.30;15.45;;;16.40;99.90;;;;;;5042186;28;36606;-84
2023/09/17 05:47:26;;;;;;;16.42;14.73;;;16.40;99.90;;;;;;5062818;28;39674;-82
2023/09/17 05:49:55;;;;;;;18.13;15.10;;;16.40;99.90;;;;;;5041521;28;37517;-81
2023/09/17 05:52:21;;;;;;;16.48;14.70;;;16.40;99.90;;;;;;5041520;28;37938;-78
2023/09/17 05:54:47;;;;;;;16.08;14.48;;;16.40;99.90;;;;;;5045960;28;37616;-80
2023/09/17 05:57:13;;;;;;;17.30;15.52;;;16.40;99.90;;;;;;5046392;28;39108;-79
2023/09/17 05:59:40;;;;;;;16.77;14.32;;;16.40;99.90;;;;;;5044369;28;39823;-79
2023/09/17 06:02:06;;;;;;;18.60;15.18;;;16.50;99.90;;;;;;5046491;28;37318;-79
2023/09/17 06:04:32;;;;;;;16.50;14.68;;;16.40;99.90;;;;;;5043624;28;36755;-78
2023/09/17 06:07:01;;;;;;;16.95;14.63;;;16.50;99.90;;;;;;5047628;28;37347;-83
2023/09/17 06:09:27;;;;;;;16.92;14.63;;;16.50;99.90;;;;;;5034997;28;37719;-80
2023/09/17 06:11:53;;;;;;;16.48;14.77;;;16.50;99.90;;;;;;5055970;28;38092;-79
2023/09/17 06:14:19;;;;;;;17.67;15.88;;;16.50;99.90;;;;;;5062261;28;37516;-80
2023/09/17 06:16:45;;;;;;;21.15;17.80;;;16.50;99.90;;;;;;5054955;28;39609;-80
2023/09/17 06:19:11;;;;;;;18.75;16.80;;;16.60;99.90;;;;;;5052681;28;38482;-81
2023/09/17 06:21:37;;;;;;;18.40;16.58;;;16.50;99.90;;;;;;5042884;28;38490;-80
2023/09/17 06:24:04;;;;;;;19.58;17.13;;;16.50;99.90;;;;;;5057305;28;37083;-82
2023/09/17 06:26:30;;;;;;;17.55;15.77;;;16.50;99.90;;;;;;5041600;28;37871;-81
2023/09/17 06:28:57;;;;;;;18.20;16.50;;;16.50;99.90;;;;;;5040832;28;37258;-83
2023/09/17 06:31:23;;;;;;;18.10;16.15;;;16.60;99.90;;;;;;5035826;28;36353;-82
2023/09/17 06:33:49;;;;;;;16.83;15.02;;;16.60;99.90;;;;;;5038713;28;36620;-82
2023/09/17 06:36:15;;;;;;;20.23;17.13;;;16.60;99.90;;;;;;5041569;28;38829;-80
2023/09/17 06:38:41;;;;;;;19.08;16.35;;;16.60;99.90;;;;;;5054582;28;38603;-78
2023/09/17 06:41:07;;;;;;;18.17;16.35;;;16.70;99.90;;;;;;5053663;28;37304;-79
2023/09/17 06:43:35;;;;;;;21.63;17.80;;;16.70;99.90;;;;;;5064856;28;37195;-82
2023/09/17 06:46:01;;;;;;;20.67;16.45;;;16.70;99.90;;;;;;5042471;28;38731;-83
2023/09/17 06:48:27;;;;;;;17.70;15.57;;;16.70;99.90;;;;;;5042684;28;46361;-78
2023/09/17 06:50:53;;;;;;;18.75;16.80;;;16.70;99.90;;;;;;5036606;28;37824;-82
2023/09/17 06:53:19;;;;;;;18.95;16.95;;;16.70;99.90;;;;;;5064704;28;36974;-82
2023/09/17 06:55:45;;;;;;;20.60;16.95;;;16.70;99.90;;;;;;5051853;28;37399;-83
2023/09/17 06:58:12;;;;;;;20.73;18.45;;;16.70;99.90;;;;;;5052115;28;37494;-81
2023/09/17 07:00:38;;;;;;;21.80;19.58;;;16.70;99.90;;;;;;5045180;28;38436;-79
2023/09/17 07:03:04;;;;;;;20.48;18.27;;;16.70;99.90;;;;;;5065245;28;37380;-81
2023/09/17 07:05:30;;;;;;;21.63;19.42;;;16.70;99.90;;;;;;5054356;28;39056;-83
2023/09/17 07:07:56;;;;;;;22.65;20.02;;;16.70;99.90;;;;;;5046863;28;37678;-81
2023/09/17 07:10:22;;;;;;;20.52;18.52;;;16.70;99.90;;;;;;5062312;28;39450;-80
2023/09/17 07:12:50;;;;;;;21.58;19.33;;;16.70;99.90;;;;;;5044956;28;37504;-82
2023/09/17 07:15:18;;;;;;;21.02;17.42;;;16.70;99.90;;;;;;5069099;28;40115;-82
2023/09/17 07:17:44;;;;;;;20.42;18.08;;;16.70;99.90;;;;;;5064347;28;38432;-82
2023/09/17 07:20:13;;;;;;;22.67;20.08;;;16.70;99.90;;;;;;5045501;28;39694;-80
2023/09/17 07:22:41;;;;;;;21.55;19.35;;;16.60;99.90;;;;;;5038071;28;36302;-80
2023/09/17 07:25:08;;;;;;;21.75;19.42;;;16.60;99.90;;;;;;5033837;28;37957;-80
2023/09/17 07:27:34;;;;;;;21.42;19.33;;;16.50;99.90;;;;;;5043743;28;37297;-80
2023/09/17 07:30:00;;;;;;;22.08;19.73;;;16.50;99.90;;;;;;5067153;28;38250;-80
2023/09/17 07:32:27;;;;;;;23.67;19.55;;;16.40;99.90;;;;;;5046113;28;37223;-79
2023/09/17 07:34:53;;;;;;;21.73;19.42;;;16.40;99.90;;;;;;5061923;28;39242;-79
2023/09/17 07:37:20;;;;;;;21.75;19.10;;;16.40;99.90;;;;;;5068411;28;37914;-80
2023/09/17 07:39:47;;;;;;;21.25;19.05;;;16.30;99.90;;;;;;5067002;28;38075;-81
2023/09/17 07:42:14;;;;;;;22.92;20.45;;;16.30;99.90;;;;;;5054903;28;37598;-79
2023/09/17 07:44:40;;;;;;;21.45;19.10;;;16.30;99.90;;;;;;5045901;28;38923;-79
2023/09/17 07:47:08;;;;;;;22.17;19.58;;;16.30;99.90;;;;;;5061815;28;39364;-81
2023/09/17 07:49:36;;;;;;;20.35;18.35;;;16.30;99.90;;;;;;5047537;28;36972;-81
2023/09/17 07:52:03;;;;;;;18.73;16.83;;;16.30;99.90;;;;;;5058601;28;36730;-80
2023/09/17 07:54:30;;;;;;;20.02;17.88;;;16.30;99.90;;;;;;5052684;28;39213;-80
2023/09/17 07:56:56;;;;;;;19.05;17.10;;;16.30;99.90;;;;;;5050053;28;40345;-84
2023/09/17 07:59:22;;;;;;;17.27;15.43;;;16.40;99.90;;;;;;5040525;28;38127;-83
2023/09/17 08:01:50;;;;;;;17.52;15.73;;;16.40;99.90;;;;;;5060575;28;37033;-82
2023/09/17 08:04:16;;;;;;;14.57;13.18;;;16.40;99.90;;;;;;5048765;28;38001;-82
2023/09/17 08:06:42;;;;;;;13.70;12.30;;;16.50;99.90;;;;;;5046030;28;38656;-80
2023/09/17 08:09:08;;;;;;;15.80;14.20;;;16.40;99.90;;;;;;5041740;28;37540;-81
2023/09/17 08:11:34;;;;;;;13.48;12.15;;;16.40;99.90;;;;;;5057535;28;38204;-81
2023/09/17 08:14:00;;;;;;;13.40;12.10;;;16.40;99.90;;;;;;5059316;28;38965;-83
2023/09/17 08:16:26;;;;;;;15.65;14.07;;;16.40;99.90;;;;;;5066021;28;36955;-84
2023/09/17 08:18:53;;;;;;;16.20;14.50;;;16.40;99.90;;;;;;5057775;28;38623;-84
2023/09/17 08:21:20;;;;;;;15.88;14.13;;;16.40;99.90;;;;;;5049020;28;36211;-83
2023/09/17 08:23:46;;;;;;;18.15;16.30;;;16.30;99.90;;;;;;5067180;28;38603;-84
2023/09/17 08:26:12;;;;;;;16.42;14.85;;;16.30;99.90;;;;;;5041935;28;38993;-83
2023/09/17 08:28:41;;;;;;;19.80;17.55;;;16.30;99.90;;;;;;5041046;28;37351;-84
2023/09/17 08:31:08;;;;;;;17.60;15.45;;;16.30;99.90;;;;;;5047290;28;36316;-79
2023/09/17 08:33:34;;;;;;;18.05;16.13;;;16.30;99.90;;;;;;5056293;28;39193;-78
2023/09/17 08:36:00;;;;;;;18.80;16.77;;;16.30;99.90;;;;;;5061762;28;38544;-79
2023/09/17 08:38:26;;;;;;;20.30;18.15;;;16.30;99.90;;;;;;5061852;28;38019;-79
2023/09/17 08:40:53;;;;;;;21.27;18.02;;;16.30;99.90;;;;;;5042509;28;36302;-84
2023/09/17 08:43:19;;;;;;;20.38;17.48;;;16.40;99.90;;;;;;5038361;28;37993;-82
2023/09/17 08:45:45;;;;;;;19.65;17.63;;;16.50;99.90;;;;;;5045246;28;37721;-83
2023/09/17 08:48:13;;;;;;;20.23;17.00;;;16.50;99.90;;;;;;5045231;28;38832;-84
2023/09/17 08:50:40;;;;;;;20.08;18.10;;;16.60;99.90;;;;;;5047103;28;36040;-84
2023/09/17 08:53:09;;;;;;;19.02;17.08;;;16.70;99.90;;;;;;5048685;28;38374;-83
2023/09/17 08:55:36;;;;;;;20.88;18.77;;;16.70;99.90;;;;;;5066783;28;38400;-81
2023/09/17 08:58:25;;;;;;;21.33;19.17;;;16.70;99.90;;;;;;5042727;28;37264;-82
2023/09/17 09:00:55;;;;;;;20.67;18.58;;;16.70;99.90;;;;;;5040899;28;37433;-83
2023/09/17 09:03:24;;;;;;;21.15;18.58;;;16.70;99.90;;;;;;5047465;28;37676;-84
2023/09/17 09:05:55;;;;;;;21.50;18.08;;;16.70;99.90;;;;;;5045450;28;37269;-84
2023/09/17 09:08:23;;;;;;;19.80;17.80;;;16.80;99.90;;;;;;5047885;28;36965;-85
2023/09/17 09:10:50;;;;;;;20.52;18.38;;;16.80;99.90;;;;;;5041277;28;37354;-83
2023/09/17 09:13:18;;;;;;;18.73;16.70;;;16.80;99.90;;;;;;5041581;28;39607;-83
2023/09/17 09:15:45;;;;;;;19.23;17.23;;;16.80;99.90;;;;;;5042009;28;37451;-80
2023/09/17 09:18:11;;;;;;;20.95;18.75;;;16.90;99.90;;;;;;5048296;28;36990;-79
2023/09/17 09:20:39;;;;;;;19.13;17.23;;;16.90;99.90;;;;;;5042462;28;36343;-79
2023/09/17 09:23:06;;;;;;;23.13;19.15;;;16.90;99.90;;;;;;5043111;28;39162;-77
2023/09/17 09:25:33;;;;;;;19.98;17.92;;;16.90;99.90;;;;;;5060379;28;37891;-79
2023/09/17 09:28:00;;;;;;;22.80;19.15;;;16.90;99.90;;;;;;5054266;28;38302;-79
2023/09/17 09:30:27;;;;;;;20.67;18.55;;;16.90;99.90;;;;;;5063170;28;37606;-80
2023/09/17 09:32:53;;;;;;;22.40;20.17;;;16.90;99.90;;;;;;5059518;28;38786;-83
2023/09/17 09:35:20;;;;;;;23.70;19.13;;;16.90;99.90;;;;;;5039355;28;37863;-82
2023/09/17 09:37:48;;;;;;;23.33;20.90;;;16.90;99.90;;;;;;5045524;28;37315;-82
2023/09/17 09:40:15;;;;;;;22.73;20.23;;;16.90;99.90;;;;;;5061308;28;37378;-81
2023/09/17 09:42:42;;;;;;;27.02;21.40;;;16.90;99.90;;;;;;5060338;28;39134;-83
2023/09/17 09:45:15;;;;;;;23.40;20.65;;;16.90;99.90;;;;;;5043501;28;37451;-82
2023/09/17 09:47:51;;;;;;;23.65;20.02;;;16.90;99.90;;;;;;5059734;28;38933;-81
2023/09/17 09:50:35;;;;;;;22.42;20.05;;;16.90;99.90;;;;;;5062601;28;35938;-80
2023/09/17 09:53:01;;;;;;;23.45;20.48;;;17.00;99.90;;;;;;5065453;28;38819;-80
2023/09/17 09:55:28;;;;;;;24.40;21.65;;;17.00;99.90;;;;;;5045450;28;37140;-80
2023/09/17 09:57:55;;;;;;;24.08;20.38;;;17.00;99.90;;;;;;5054078;28;37952;-82
2023/09/17 10:00:29;;;;;;;24.42;21.88;;;17.10;99.90;;;;;;5063532;28;36634;-82
2023/09/17 10:02:56;;;;;;;26.15;21.85;;;17.10;99.90;;;;;;5032444;28;48232;-78
2023/09/17 10:05:37;;;;;;;24.20;21.42;;;17.00;99.90;;;;;;5061323;28;38423;-80
2023/09/17 10:08:04;;;;;;;31.08;21.48;;;17.00;99.90;;;;;;5063706;28;39243;-77
2023/09/17 10:10:31;;;;;;;25.65;21.45;;;17.10;99.90;;;;;;5061573;28;38058;-78
2023/09/17 10:12:59;;;;;;;23.33;20.92;;;17.10;99.90;;;;;;5060857;28;39448;-79
2023/09/17 10:15:25;;;;;;;24.13;21.00;;;17.10;99.90;;;;;;5061642;28;37992;-80
2023/09/17 10:17:53;;;;;;;26.50;22.20;;;17.10;99.90;;;;;;5041800;28;36964;-80
2023/09/17 10:20:22;;;;;;;26.02;21.50;;;17.20;99.90;;;;;;5041917;28;37097;-79
2023/09/17 10:22:50;;;;;;;24.13;20.75;;;17.20;99.90;;;;;;5046140;28;38778;-79
2023/09/17 10:25:17;;;;;;;21.48;19.17;;;17.20;99.90;;;;;;5047932;28;38536;-80
2023/09/17 10:27:46;;;;;;;23.95;21.25;;;17.20;99.90;;;;;;5045382;28;36930;-81
2023/09/17 10:30:17;;;;;;;24.92;21.08;;;17.30;99.90;;;;;;5041459;28;37270;-80
2023/09/17 10:32:46;;;;;;;23.60;20.23;;;17.30;99.90;;;;;;5060189;28;37170;-82
2023/09/17 10:35:14;;;;;;;24.85;20.20;;;17.40;99.90;;;;;;5047887;28;37810;-79
2023/09/17 10:37:40;;;;;;;28.23;21.33;;;17.40;99.90;;;;;;5046479;28;37860;-80
2023/09/17 10:40:10;;;;;;;25.38;20.83;;;17.50;99.90;;;;;;5056897;28;37083;-76
2023/09/17 10:42:38;;;;;;;29.45;21.67;;;17.40;99.90;;;;;;5035895;28;38909;-77
2023/09/17 10:45:07;;;;;;;22.60;19.67;;;17.40;99.90;;;;;;5055949;28;38078;-79
2023/09/17 10:47:36;;;;;;;25.65;21.95;;;17.40;99.90;;;;;;5037191;28;47355;-77
2023/09/17 10:50:03;;;;;;;27.20;21.90;;;17.50;99.90;;;;;;5065656;28;37578;-77
2023/09/17 10:52:32;;;;;;;29.77;21.15;;;17.50;99.90;;;;;;5053339;28;39920;-79
2023/09/17 10:54:59;;;;;;;28.15;21.23;;;17.60;99.90;;;;;;5049057;28;37244;-78
2023/09/17 10:57:33;;;;;;;23.58;19.35;;;17.70;99.90;;;;;;5075416;28;39165;-77
2023/09/17 11:00:03;;;;;;;32.85;22.42;;;17.80;99.90;;;;;;5046664;28;36163;-78
2023/09/17 11:02:32;;;;;;;26.95;22.17;;;17.80;99.90;;;;;;5042931;28;37664;-77
2023/09/17 11:05:00;;;;;;;29.67;22.92;;;17.90;99.90;;;;;;5048239;28;39838;-81
2023/09/17 11:07:27;;;;;;;27.08;20.63;;;17.90;99.90;;;;;;5038832;28;38326;-78
2023/09/17 11:09:55;;;;;;;29.40;21.92;;;17.80;99.90;;;;;;5044460;28;36395;-76
2023/09/17 11:12:23;;;;;;;32.20;22.67;;;17.90;99.90;;;;;;5066090;28;38474;-78
2023/09/17 11:14:51;;;;;;;27.58;20.00;;;18.00;99.90;;;;;;5064489;28;38288;-78
2023/09/17 11:17:18;;;;;;;25.50;19.80;;;18.00;99.90;;;;;;5064836;28;37626;-79
2023/09/17 11:19:44;;;;;;;28.00;21.15;;;18.10;99.90;;;;;;5045555;28;38213;-79
2023/09/17 11:22:13;;;;;;;28.38;19.92;;;18.00;99.90;;;;;;5057290;28;38339;-76
2023/09/17 11:24:44;;;;;;;39.55;23.27;;;18.10;99.90;;;;;;5055798;28;39162;-76
2023/09/17 11:27:12;;;;;;;23.55;19.92;;;18.10;99.90;;;;;;5062635;28;38980;-76
2023/09/17 11:29:43;;;;;;;28.35;20.10;;;18.10;99.90;;;;;;5045118;28;36692;-75
2023/09/17 11:32:09;;;;;;;25.20;19.77;;;18.10;99.90;;;;;;5062725;28;40101;-79
2023/09/17 11:34:38;;;;;;;30.65;20.10;;;18.00;99.90;;;;;;5043856;28;36408;-74
2023/09/17 11:37:05;;;;;;;28.27;21.52;;;18.20;99.90;;;;;;5062756;28;38091;-78
2023/09/17 11:39:33;;;;;;;24.90;18.67;;;18.30;99.90;;;;;;5064878;28;38969;-77
2023/09/17 11:42:06;;;;;;;27.85;19.90;;;18.30;99.90;;;;;;5043445;28;37758;-76
2023/09/17 11:44:34;;;;;;;28.95;20.08;;;18.40;99.90;;;;;;5067601;28;48140;-75
2023/09/17 11:47:01;;;;;;;35.13;21.83;;;18.50;99.90;;;;;;5054393;28;38171;-76
2023/09/17 11:49:28;;;;;;;34.35;20.85;;;18.40;99.90;;;;;;5041087;28;36399;-76
2023/09/17 11:51:57;;;;;;;35.67;21.50;;;18.30;99.90;;;;;;5027972;28;38965;-73
2023/09/17 11:54:30;;;;;;;34.90;23.05;;;18.20;99.90;;;;;;5045830;28;37311;-77
2023/09/17 11:56:56;;;;;;;34.88;25.10;;;18.20;99.90;;;;;;5045519;28;37172;-76
2023/09/17 11:59:24;;;;;;;32.97;21.85;;;18.20;99.90;;;;;;5047756;28;37275;-75
2023/09/17 12:01:54;;;;;;;33.50;22.45;;;18.20;99.90;;;;;;5046463;28;37949;-75
2023/09/17 12:04:25;;;;;;;37.60;23.42;;;18.20;99.90;;;;;;5046584;28;37655;-76
2023/09/17 12:06:53;;;;;;;37.75;23.98;;;18.20;99.90;;;;;;5065993;28;38230;-77
2023/09/17 12:12:05;;;;;;;31.50;21.65;;;18.10;99.90;;;;;;5060455;28;38995;-76
2023/09/17 12:14:33;;;;;;;40.67;25.33;;;18.10;99.90;;;;;;5044922;28;37495;-76
2023/09/17 12:17:01;;;;;;;40.17;26.05;;;18.20;99.90;;;;;;5043964;28;37048;-76
2023/09/17 12:19:28;;;;;;;30.98;21.00;;;18.30;99.90;;;;;;5037927;28;47841;-76
2023/09/17 12:21:55;;;;;;;39.47;25.05;;;18.30;99.90;;;;;;5058483;28;39070;-75
2023/09/17 12:24:28;;;;;;;36.08;23.95;;;18.30;99.90;;;;;;5055252;28;37413;-73
2023/09/17 12:27:19;;;;;;;35.78;23.90;;;18.10;99.90;;;;;;5060859;28;38211;-76
2023/09/17 12:29:46;;;;;;;35.15;23.90;;;18.00;99.90;;;;;;5054338;28;46755;-79
2023/09/17 12:32:13;;;;;;;36.00;25.27;;;18.10;99.90;;;;;;5057317;28;37136;-74